Time;durP1;ratioP1;P1;durP2;ratioP2;P2;SDS_P1;SDS_P2;PMS_P1;PMS_P2;Temp;Humidity;BMP_temperature;BMP_pressure;BME280_temperature;BME280_humidity;BME280_pressure;Samples;Min_cycle;Max_cycle;Signal;HPM_P1;HPM_P2
2022/10/07 00:00:51;;;;;;;5.03;3.78;;;9.40;99.90;;;;;;5022201;28;20204;-79
2022/10/07 00:03:22;;;;;;;5.63;4.50;;;9.40;99.90;;;;;;5014790;28;20615;-79
2022/10/07 00:06:01;;;;;;;5.97;4.60;;;9.30;99.90;;;;;;5023864;28;20178;-79
2022/10/07 00:08:27;;;;;;;5.00;4.57;;;9.20;99.90;;;;;;5022118;28;20248;-79
2022/10/07 00:10:52;;;;;;;4.45;4.05;;;9.20;99.90;;;;;;5018732;28;20278;-78
2022/10/07 00:13:18;;;;;;;4.50;4.07;;;9.10;99.90;;;;;;5022634;28;20212;-78
2022/10/07 00:15:43;;;;;;;5.57;4.38;;;9.10;99.90;;;;;;5016934;28;20186;-78
2022/10/07 00:18:09;;;;;;;4.65;4.25;;;9.10;99.90;;;;;;5014818;28;20276;-78
2022/10/07 00:20:38;;;;;;;7.25;4.45;;;9.10;99.90;;;;;;5003210;28;20220;-77
2022/10/07 00:23:05;;;;;;;5.28;4.78;;;9.10;99.90;;;;;;5009795;28;20732;-79
2022/10/07 00:25:34;;;;;;;9.50;4.57;;;9.00;99.90;;;;;;5006096;28;20616;-77
2022/10/07 00:27:59;;;;;;;6.80;4.72;;;9.00;99.90;;;;;;5018928;28;20184;-78
2022/10/07 00:30:25;;;;;;;4.63;4.22;;;9.00;99.90;;;;;;5015713;28;20182;-76
2022/10/07 00:32:51;;;;;;;6.18;4.50;;;9.00;99.90;;;;;;5016000;28;20267;-78
2022/10/07 00:35:16;;;;;;;4.00;3.67;;;9.00;99.90;;;;;;5015571;28;20192;-77
2022/10/07 00:37:42;;;;;;;4.70;4.20;;;9.00;99.90;;;;;;5010605;28;20182;-77
2022/10/07 00:40:12;;;;;;;5.32;3.88;;;8.90;99.90;;;;;;5014205;28;20185;-77
2022/10/07 00:42:42;;;;;;;4.70;4.28;;;8.90;99.90;;;;;;5015506;28;20201;-76
2022/10/07 00:45:19;;;;;;;4.22;3.65;;;8.90;99.90;;;;;;5008686;28;20200;-78
2022/10/07 00:47:49;;;;;;;6.00;3.85;;;8.90;99.90;;;;;;5006950;28;22769;-77
2022/10/07 00:50:24;;;;;;;4.38;3.88;;;8.90;99.90;;;;;;5013451;28;20199;-77
2022/10/07 00:52:58;;;;;;;4.65;4.20;;;8.90;99.90;;;;;;5011065;28;20333;-77
2022/10/07 00:55:26;;;;;;;6.40;4.00;;;8.90;99.90;;;;;;5012126;28;20190;-78
2022/10/07 00:57:56;;;;;;;4.72;4.10;;;8.90;99.90;;;;;;5015139;28;20679;-78
2022/10/07 01:00:22;;;;;;;6.47;4.13;;;8.80;99.90;;;;;;5003998;28;20201;-78
2022/10/07 01:02:48;;;;;;;6.78;3.88;;;8.80;99.90;;;;;;5014780;28;20333;-77
2022/10/07 01:05:15;;;;;;;4.90;3.97;;;8.80;99.90;;;;;;5011200;28;20208;-77
2022/10/07 01:07:41;;;;;;;4.40;4.00;;;8.80;99.90;;;;;;5015808;28;20177;-76
2022/10/07 01:10:08;;;;;;;4.55;4.15;;;8.80;99.90;;;;;;5010950;28;21383;-77
2022/10/07 01:12:55;;;;;;;8.35;4.40;;;8.80;99.90;;;;;;5009714;28;20193;-77
2022/10/07 01:15:38;;;;;;;4.85;4.40;;;8.80;99.90;;;;;;5009850;28;20268;-78
2022/10/07 01:18:30;;;;;;;4.82;4.43;;;8.80;99.90;;;;;;5012519;28;20169;-78
2022/10/07 01:21:05;;;;;;;6.55;4.35;;;8.70;99.90;;;;;;5008916;28;20567;-78
2022/10/07 01:23:46;;;;;;;3.95;3.65;;;8.70;99.90;;;;;;5012354;28;20279;-77
2022/10/07 01:26:40;;;;;;;4.30;3.90;;;8.70;99.90;;;;;;5008314;28;20648;-77
2022/10/07 01:29:18;;;;;;;5.20;4.05;;;8.70;99.90;;;;;;5008060;28;20173;-77
2022/10/07 01:32:00;;;;;;;4.85;3.72;;;8.70;99.90;;;;;;5008338;28;20176;-77
2022/10/07 01:34:26;;;;;;;4.72;3.25;;;8.60;99.90;;;;;;5011139;28;20208;-77
2022/10/07 01:36:56;;;;;;;3.72;3.42;;;8.60;99.90;;;;;;5026456;28;20181;-77
2022/10/07 01:39:28;;;;;;;6.97;3.63;;;8.60;99.90;;;;;;5010044;28;20176;-77
2022/10/07 01:41:53;;;;;;;3.95;3.65;;;8.60;99.90;;;;;;5011505;28;20193;-77
2022/10/07 01:44:20;;;;;;;4.35;3.70;;;8.60;99.90;;;;;;5013538;28;20783;-77
2022/10/07 01:46:46;;;;;;;5.93;4.20;;;8.50;99.90;;;;;;5009052;28;20169;-77
2022/10/07 01:49:12;;;;;;;4.00;3.67;;;8.50;99.90;;;;;;5016794;28;20177;-77
2022/10/07 01:51:39;;;;;;;3.85;3.55;;;8.50;99.90;;;;;;5009444;28;20183;-77
2022/10/07 01:54:23;;;;;;;4.50;4.05;;;8.50;99.90;;;;;;5006312;28;20201;-77
2022/10/07 01:57:20;;;;;;;5.53;4.10;;;8.50;99.90;;;;;;5009852;28;20268;-75
2022/10/07 01:59:56;;;;;;;6.25;4.05;;;8.50;99.90;;;;;;5006475;28;20255;-77
2022/10/07 02:02:27;;;;;;;4.45;3.85;;;8.50;99.90;;;;;;5005140;28;20197;-77
2022/10/07 02:05:34;;;;;;;4.28;3.83;;;8.40;99.90;;;;;;5015117;28;20177;-77
2022/10/07 02:08:11;;;;;;;4.10;3.70;;;8.40;99.90;;;;;;5010700;28;20270;-76
2022/10/07 02:10:59;;;;;;;4.55;4.18;;;8.40;99.90;;;;;;5005819;28;20194;-76
2022/10/07 02:13:35;;;;;;;5.22;4.25;;;8.40;99.90;;;;;;5016083;28;20287;-76
2022/10/07 02:16:01;;;;;;;4.47;4.13;;;8.30;99.90;;;;;;5013650;28;20173;-76
2022/10/07 02:18:30;;;;;;;4.63;4.22;;;8.30;99.90;;;;;;5015280;28;20184;-76
2022/10/07 02:20:56;;;;;;;6.55;4.50;;;8.30;99.90;;;;;;5012906;28;20196;-76
2022/10/07 02:23:24;;;;;;;5.10;4.60;;;8.30;99.90;;;;;;5021497;28;20208;-77
2022/10/07 02:25:52;;;;;;;4.65;4.35;;;8.30;99.90;;;;;;5028422;28;20180;-77
2022/10/07 02:28:23;;;;;;;6.53;4.50;;;8.20;99.90;;;;;;5013602;28;20216;-78
2022/10/07 02:30:52;;;;;;;6.53;4.82;;;8.20;99.90;;;;;;5013409;28;20725;-76
2022/10/07 02:33:20;;;;;;;5.07;4.68;;;8.20;99.90;;;;;;5006322;28;20208;-78
2022/10/07 02:35:49;;;;;;;5.13;4.43;;;8.20;99.90;;;;;;5010288;28;20180;-77
2022/10/07 02:38:17;;;;;;;5.05;4.63;;;8.20;99.90;;;;;;5010650;28;20177;-78
2022/10/07 02:41:10;;;;;;;6.85;5.07;;;8.20;99.90;;;;;;5028027;28;20287;-78
2022/10/07 02:43:45;;;;;;;5.43;4.15;;;8.10;99.90;;;;;;5011583;28;20235;-78
2022/10/07 02:46:21;;;;;;;5.50;3.80;;;8.10;99.90;;;;;;5014542;28;20211;-78
2022/10/07 02:48:56;;;;;;;6.72;4.30;;;8.10;99.90;;;;;;5013892;28;20173;-78
2022/10/07 02:51:26;;;;;;;4.32;3.95;;;8.10;99.90;;;;;;5012898;28;20173;-78
2022/10/07 02:53:54;;;;;;;5.03;4.47;;;8.10;99.90;;;;;;5012254;28;20203;-78
2022/10/07 02:56:23;;;;;;;5.95;4.20;;;8.10;99.90;;;;;;5011112;28;20200;-78
2022/10/07 02:58:49;;;;;;;6.40;4.30;;;8.00;99.90;;;;;;5011420;28;20204;-78
2022/10/07 03:01:19;;;;;;;4.28;3.97;;;8.00;99.90;;;;;;5014757;28;20207;-77
2022/10/07 03:03:45;;;;;;;5.18;4.30;;;8.00;99.90;;;;;;5010694;28;20244;-76
2022/10/07 03:06:12;;;;;;;4.40;4.00;;;8.00;99.90;;;;;;5007983;28;20189;-77
2022/10/07 03:08:39;;;;;;;4.28;3.97;;;8.00;99.90;;;;;;5001597;28;20185;-76
2022/10/07 03:11:04;;;;;;;5.13;4.40;;;8.00;99.90;;;;;;5013372;28;20181;-76
2022/10/07 03:13:30;;;;;;;5.30;4.78;;;7.90;99.90;;;;;;5004845;28;20583;-76
2022/10/07 03:15:55;;;;;;;4.32;3.92;;;7.90;99.90;;;;;;5017488;28;20205;-76
2022/10/07 03:18:28;;;;;;;4.85;4.45;;;7.90;99.90;;;;;;5009650;28;20544;-76
2022/10/07 03:20:59;;;;;;;5.35;4.15;;;7.90;99.90;;;;;;5002631;28;20204;-76
2022/10/07 03:23:30;;;;;;;4.68;4.28;;;7.80;99.90;;;;;;5011246;28;20251;-76
2022/10/07 03:25:57;;;;;;;3.90;3.63;;;7.80;99.90;;;;;;5010021;28;20231;-76
2022/10/07 03:28:25;;;;;;;4.55;3.78;;;7.80;99.90;;;;;;5006316;28;20169;-76
2022/10/07 03:30:51;;;;;;;4.82;3.88;;;7.80;99.90;;;;;;5006781;28;20209;-76
2022/10/07 03:33:19;;;;;;;5.97;4.20;;;7.80;99.90;;;;;;5011021;28;20197;-77
2022/10/07 03:35:45;;;;;;;3.97;3.67;;;7.80;99.90;;;;;;5017251;28;20239;-78
2022/10/07 03:38:11;;;;;;;4.22;3.83;;;7.80;99.90;;;;;;5017468;28;20241;-77
2022/10/07 03:40:37;;;;;;;6.03;5.50;;;7.80;99.90;;;;;;5017300;28;20198;-78
2022/10/07 03:43:03;;;;;;;5.65;4.97;;;7.70;99.90;;;;;;5012031;28;20544;-78
2022/10/07 03:45:29;;;;;;;6.22;4.00;;;7.70;99.90;;;;;;5015086;28;20173;-77
2022/10/07 03:47:58;;;;;;;4.65;4.32;;;7.70;99.90;;;;;;5004666;28;20188;-78
2022/10/07 03:50:25;;;;;;;5.22;4.20;;;7.70;99.90;;;;;;5006383;28;20178;-76
2022/10/07 03:52:51;;;;;;;4.28;3.70;;;7.70;99.90;;;;;;5013418;28;20233;-76
2022/10/07 03:55:17;;;;;;;5.93;4.82;;;7.70;99.90;;;;;;5011384;28;20227;-76
2022/10/07 03:57:49;;;;;;;4.93;4.40;;;7.70;99.90;;;;;;5012063;28;20562;-76
2022/10/07 04:00:17;;;;;;;4.63;4.22;;;7.70;99.90;;;;;;5009545;28;20181;-77
2022/10/07 04:02:43;;;;;;;6.60;3.90;;;7.60;99.90;;;;;;5010879;28;20212;-77
2022/10/07 04:05:09;;;;;;;5.60;4.10;;;7.60;99.90;;;;;;5005272;28;20185;-77
2022/10/07 04:07:34;;;;;;;4.57;4.18;;;7.60;99.90;;;;;;5013804;28;20223;-77
2022/10/07 04:10:00;;;;;;;4.95;3.92;;;7.60;99.90;;;;;;5013427;28;20177;-76
2022/10/07 04:12:26;;;;;;;5.70;3.75;;;7.60;99.90;;;;;;5014728;28;20546;-77
2022/10/07 04:14:52;;;;;;;6.28;4.20;;;7.60;99.90;;;;;;5009339;28;20277;-74
2022/10/07 04:17:18;;;;;;;5.75;3.97;;;7.60;99.90;;;;;;5011430;28;20272;-76
2022/10/07 04:19:44;;;;;;;4.20;3.83;;;7.60;99.90;;;;;;5006118;28;20316;-76
2022/10/07 04:22:10;;;;;;;6.50;4.30;;;7.60;99.90;;;;;;5008331;28;20211;-77
2022/10/07 04:24:36;;;;;;;4.45;3.80;;;7.60;99.90;;;;;;5010260;28;20835;-77
2022/10/07 04:27:05;;;;;;;5.18;4.18;;;7.60;99.90;;;;;;5011656;28;20718;-79
2022/10/07 04:29:36;;;;;;;4.55;3.95;;;7.60;99.90;;;;;;5023268;28;20189;-81
2022/10/07 04:32:02;;;;;;;4.28;3.95;;;7.60;99.90;;;;;;5031327;28;20224;-80
2022/10/07 04:34:30;;;;;;;4.40;4.10;;;7.60;99.90;;;;;;5029026;28;20197;-80
2022/10/07 04:36:59;;;;;;;9.20;4.60;;;7.60;99.90;;;;;;5018580;28;20203;-80
2022/10/07 04:39:25;;;;;;;4.70;4.13;;;7.60;99.90;;;;;;5023310;28;20181;-78
2022/10/07 04:41:52;;;;;;;4.53;4.22;;;7.60;99.90;;;;;;5014960;28;20208;-78
2022/10/07 04:44:17;;;;;;;4.80;4.10;;;7.60;99.90;;;;;;5010720;28;20201;-78
2022/10/07 04:46:43;;;;;;;7.35;4.43;;;7.60;99.90;;;;;;5012874;28;20182;-78
2022/10/07 04:49:09;;;;;;;4.50;4.13;;;7.60;99.90;;;;;;5019737;28;20173;-78
2022/10/07 04:51:35;;;;;;;6.63;4.13;;;7.60;99.90;;;;;;5011787;28;20186;-75
2022/10/07 04:54:00;;;;;;;5.47;4.20;;;7.50;99.90;;;;;;5016234;28;20209;-76
2022/10/07 04:56:27;;;;;;;4.43;4.13;;;7.60;99.90;;;;;;5012474;28;20229;-83
2022/10/07 04:58:53;;;;;;;7.32;3.90;;;7.50;99.90;;;;;;5023976;28;20185;-80
2022/10/07 05:01:19;;;;;;;5.32;4.63;;;7.50;99.90;;;;;;5029177;28;20309;-84
2022/10/07 05:03:44;;;;;;;5.38;4.30;;;7.50;99.90;;;;;;5009185;28;20290;-83
2022/10/07 05:06:19;;;;;;;4.45;4.05;;;7.50;99.90;;;;;;5021724;28;20633;-83
2022/10/07 05:08:45;;;;;;;4.60;4.20;;;7.50;99.90;;;;;;5024105;28;20184;-83
2022/10/07 05:11:10;;;;;;;6.68;4.68;;;7.50;99.90;;;;;;5016804;28;20177;-76
2022/10/07 05:13:37;;;;;;;4.25;3.85;;;7.50;99.90;;;;;;5008960;28;20212;-76
2022/10/07 05:16:03;;;;;;;4.78;4.25;;;7.60;99.90;;;;;;5007062;28;20691;-76
2022/10/07 05:18:29;;;;;;;4.20;3.80;;;7.60;99.90;;;;;;5012187;28;20185;-77
2022/10/07 05:20:55;;;;;;;4.40;4.07;;;7.60;99.90;;;;;;5010262;28;20200;-77
2022/10/07 05:23:23;;;;;;;4.88;4.05;;;7.60;99.90;;;;;;5013018;28;20559;-78
2022/10/07 05:25:57;;;;;;;5.13;4.60;;;7.60;99.90;;;;;;5033509;28;20188;-77
2022/10/07 05:28:23;;;;;;;8.25;4.85;;;7.60;99.90;;;;;;5015423;28;20183;-77
2022/10/07 05:30:48;;;;;;;6.10;5.50;;;7.60;99.90;;;;;;5006079;28;20288;-76
2022/10/07 05:33:15;;;;;;;6.35;4.38;;;7.50;99.90;;;;;;5011200;28;20734;-76
2022/10/07 05:35:45;;;;;;;6.72;5.03;;;7.60;99.90;;;;;;5008891;28;20193;-76
2022/10/07 05:38:10;;;;;;;5.10;4.70;;;7.70;99.90;;;;;;5007188;28;20273;-77
2022/10/07 05:40:36;;;;;;;8.60;5.18;;;7.90;99.90;;;;;;5009186;28;20304;-76
2022/10/07 05:43:01;;;;;;;5.88;5.28;;;8.10;99.90;;;;;;5008673;28;20954;-77
2022/10/07 05:45:30;;;;;;;7.35;4.03;;;8.20;99.90;;;;;;5006124;28;20615;-76
2022/10/07 05:47:57;;;;;;;4.28;3.88;;;8.40;99.90;;;;;;5008227;28;20170;-76
2022/10/07 05:50:22;;;;;;;4.82;3.60;;;8.50;99.90;;;;;;5012717;28;20169;-77
2022/10/07 05:52:48;;;;;;;6.45;3.92;;;8.60;99.90;;;;;;5014561;28;20723;-77
2022/10/07 05:55:15;;;;;;;4.32;3.92;;;8.70;99.90;;;;;;5010796;28;20201;-77
2022/10/07 05:57:41;;;;;;;4.45;4.03;;;8.90;99.90;;;;;;5016828;28;20196;-77
2022/10/07 06:00:07;;;;;;;7.25;3.75;;;9.00;99.90;;;;;;5009638;28;20200;-76
2022/10/07 06:02:33;;;;;;;3.65;3.35;;;9.00;99.90;;;;;;5006456;28;20296;-77
2022/10/07 06:04:59;;;;;;;3.65;3.28;;;9.00;99.90;;;;;;5012407;28;20694;-75
2022/10/07 06:07:25;;;;;;;6.82;3.50;;;9.10;99.90;;;;;;5009792;28;20197;-75
2022/10/07 06:15:21;;;;;;;3.58;3.22;;;9.60;99.90;;;;;;5012929;28;20255;-76
2022/10/07 06:17:46;;;;;;;4.13;3.28;;;9.70;99.90;;;;;;5016089;28;20180;-74
2022/10/07 06:20:13;;;;;;;3.47;3.10;;;9.80;99.90;;;;;;5012931;28;20648;-77
2022/10/07 06:22:39;;;;;;;3.42;3.17;;;10.00;99.90;;;;;;5013647;28;20214;-77
2022/10/07 06:25:05;;;;;;;3.65;3.35;;;10.10;99.90;;;;;;5007447;28;20185;-77
2022/10/07 06:27:32;;;;;;;3.83;3.33;;;10.20;99.90;;;;;;5012900;28;20312;-77
2022/10/07 06:29:57;;;;;;;3.70;3.20;;;10.30;99.90;;;;;;5009208;28;20232;-78
2022/10/07 06:32:23;;;;;;;5.93;3.20;;;10.40;99.90;;;;;;5011990;28;20205;-77
2022/10/07 06:34:48;;;;;;;7.85;3.38;;;10.50;99.90;;;;;;5008775;28;20188;-77
2022/10/07 06:37:14;;;;;;;3.88;3.58;;;10.60;99.90;;;;;;5013715;28;20216;-77
2022/10/07 06:39:40;;;;;;;4.07;3.20;;;10.80;99.90;;;;;;5013627;28;20185;-79
2022/10/07 06:42:06;;;;;;;4.93;3.28;;;11.00;99.90;;;;;;5007738;28;20216;-76
2022/10/07 06:44:31;;;;;;;5.53;3.40;;;11.10;99.90;;;;;;5021914;28;20211;-79
2022/10/07 06:46:57;;;;;;;3.83;3.40;;;11.10;99.90;;;;;;5016142;28;20671;-78
2022/10/07 06:49:22;;;;;;;3.63;3.33;;;11.00;99.90;;;;;;5016688;28;20174;-78
2022/10/07 06:51:48;;;;;;;3.95;3.55;;;11.00;99.90;;;;;;5017496;28;20199;-79
2022/10/07 06:54:14;;;;;;;3.65;3.35;;;10.90;99.90;;;;;;5007125;28;20204;-76
2022/10/07 06:56:39;;;;;;;6.85;3.22;;;10.90;99.90;;;;;;5008591;28;20263;-76
2022/10/07 06:59:05;;;;;;;3.28;2.97;;;10.80;99.90;;;;;;5008342;28;20184;-76
2022/10/07 07:01:31;;;;;;;6.03;3.60;;;10.80;99.90;;;;;;5003553;28;20209;-76
2022/10/07 07:03:57;;;;;;;4.82;3.75;;;10.70;99.90;;;;;;5000181;28;20193;-76
2022/10/07 07:06:22;;;;;;;5.32;3.72;;;10.70;99.90;;;;;;5008850;28;20231;-76
2022/10/07 07:08:49;;;;;;;6.60;3.50;;;10.60;99.90;;;;;;5008570;28;20182;-76
2022/10/07 07:14:00;;;;;;;4.80;3.25;;;10.70;99.90;;;;;;5008047;28;20263;-76
2022/10/07 07:16:26;;;;;;;3.35;3.05;;;10.80;99.90;;;;;;5004640;28;20177;-77
2022/10/07 07:18:57;;;;;;;4.90;3.70;;;10.90;99.90;;;;;;5008113;28;20177;-74
2022/10/07 07:21:27;;;;;;;4.63;3.38;;;10.90;99.90;;;;;;5022412;28;20263;-80
2022/10/07 07:23:53;;;;;;;4.40;3.95;;;11.00;99.90;;;;;;5009616;28;20568;-75
2022/10/07 07:26:19;;;;;;;5.13;3.90;;;11.10;99.90;;;;;;5012980;28;20180;-77
2022/10/07 07:28:53;;;;;;;4.95;3.65;;;11.00;99.90;;;;;;5013373;28;20177;-78
2022/10/07 07:31:19;;;;;;;4.40;3.38;;;11.00;99.90;;;;;;5022665;28;20177;-81
2022/10/07 07:33:51;;;;;;;6.07;3.72;;;11.00;99.90;;;;;;5036722;28;20292;-81
2022/10/07 07:36:18;;;;;;;4.28;3.88;;;11.00;99.90;;;;;;5036142;28;20275;-81
2022/10/07 07:39:06;;;;;;;3.20;3.00;;;11.00;99.90;;;;;;5014922;28;20192;-81
2022/10/07 07:41:34;;;;;;;3.90;3.53;;;11.20;99.90;;;;;;5022023;28;20209;-81
2022/10/07 07:44:02;;;;;;;8.95;3.70;;;11.20;99.90;;;;;;5020068;28;20197;-81
2022/10/07 07:46:35;;;;;;;4.38;3.90;;;11.30;99.90;;;;;;5016608;28;20201;-82
2022/10/07 07:49:01;;;;;;;5.10;3.55;;;11.40;99.90;;;;;;5035617;28;20185;-80
2022/10/07 07:51:26;;;;;;;3.97;3.63;;;11.40;99.90;;;;;;5017804;28;20192;-80
2022/10/07 07:53:52;;;;;;;4.80;3.75;;;11.40;99.90;;;;;;5021092;28;20571;-82
2022/10/07 07:56:19;;;;;;;4.10;3.65;;;11.50;99.90;;;;;;5020402;28;20836;-81
2022/10/07 07:58:45;;;;;;;8.38;3.80;;;11.60;99.90;;;;;;5020324;28;20189;-79
2022/10/07 08:01:13;;;;;;;5.13;3.50;;;11.60;99.90;;;;;;5016843;28;20205;-80
2022/10/07 08:03:45;;;;;;;3.75;3.40;;;11.70;99.90;;;;;;5019827;28;20213;-82
2022/10/07 08:06:12;;;;;;;4.32;3.92;;;11.90;99.90;;;;;;5019560;28;20169;-81
2022/10/07 08:08:41;;;;;;;4.75;3.83;;;11.90;99.90;;;;;;5019111;28;20185;-81
2022/10/07 08:11:19;;;;;;;3.85;3.55;;;12.00;99.90;;;;;;5019536;28;20227;-80
2022/10/07 08:13:45;;;;;;;3.88;3.58;;;12.10;99.90;;;;;;5018869;28;20217;-81
2022/10/07 08:16:14;;;;;;;6.00;3.83;;;12.10;99.90;;;;;;5015520;28;20184;-79
2022/10/07 08:18:40;;;;;;;5.68;3.88;;;12.20;99.90;;;;;;5015658;28;20196;-79
2022/10/07 08:21:07;;;;;;;4.25;3.35;;;12.30;99.90;;;;;;5019140;28;20357;-81
2022/10/07 08:23:34;;;;;;;4.00;3.67;;;12.30;99.90;;;;;;5016616;28;20280;-82
2022/10/07 08:26:00;;;;;;;3.83;3.53;;;12.40;99.90;;;;;;5019980;28;20664;-81
2022/10/07 08:28:27;;;;;;;4.63;3.40;;;12.60;99.90;;;;;;5017412;28;20192;-80
2022/10/07 08:30:54;;;;;;;4.30;3.42;;;12.80;99.90;;;;;;5018955;28;20208;-81
2022/10/07 08:33:21;;;;;;;3.53;3.25;;;12.90;99.90;;;;;;5020064;28;20205;-82
2022/10/07 08:35:51;;;;;;;5.55;3.47;;;13.20;99.90;;;;;;5021777;28;20292;-82
2022/10/07 08:38:16;;;;;;;6.47;4.03;;;13.30;99.90;;;;;;5036468;28;20183;-80
2022/10/07 08:40:50;;;;;;;4.38;3.50;;;13.40;99.90;;;;;;5016139;28;20201;-79
2022/10/07 08:43:19;;;;;;;4.43;4.03;;;13.50;99.90;;;;;;5019569;28;20201;-81
2022/10/07 08:45:45;;;;;;;4.88;4.15;;;13.60;99.90;;;;;;5017616;28;20260;-81
2022/10/07 08:48:23;;;;;;;4.35;3.78;;;13.70;99.90;;;;;;5020105;28;20244;-81
2022/10/07 08:51:01;;;;;;;3.88;3.47;;;13.90;99.90;;;;;;5019549;28;20177;-83
2022/10/07 08:53:32;;;;;;;4.07;3.65;;;14.00;99.90;;;;;;5022166;28;20215;-81
2022/10/07 08:56:17;;;;;;;3.65;3.35;;;14.20;99.90;;;;;;5017783;28;20177;-82
2022/10/07 08:58:55;;;;;;;4.07;3.30;;;14.40;99.90;;;;;;5016450;28;20189;-82
2022/10/07 09:01:34;;;;;;;4.60;3.65;;;14.80;99.90;;;;;;5018021;28;20227;-81
2022/10/07 09:04:15;;;;;;;5.15;3.20;;;15.30;99.90;;;;;;5014904;28;20204;-79
2022/10/07 09:07:19;;;;;;;3.50;3.05;;;16.30;99.90;;;;;;5015153;28;20201;-80
2022/10/07 09:09:53;;;;;;;4.57;3.08;;;17.30;99.90;;;;;;5002623;28;20209;-80
2022/10/07 09:12:23;;;;;;;2.88;2.67;;;19.00;99.90;;;;;;5022623;28;20661;-81
2022/10/07 09:14:54;;;;;;;4.80;2.80;;;21.30;99.90;;;;;;5010255;28;20192;-81
2022/10/07 09:17:38;;;;;;;2.95;2.72;;;23.70;99.90;;;;;;5016019;28;20205;-81
2022/10/07 09:20:34;;;;;;;4.03;2.70;;;25.90;93.10;;;;;;5020453;28;20307;-80
2022/10/07 09:23:29;;;;;;;2.45;2.30;;;27.70;82.30;;;;;;5026948;28;20217;-78
2022/10/07 09:33:17;;;;;;;3.30;2.50;;;31.30;60.30;;;;;;5029358;28;20209;-78
2022/10/07 09:35:56;;;;;;;2.42;2.30;;;31.50;57.00;;;;;;5005062;28;20176;-76
2022/10/07 09:38:37;;;;;;;3.00;2.22;;;32.00;56.20;;;;;;4998450;28;20646;-77
2022/10/07 09:41:16;;;;;;;2.78;2.38;;;32.40;55.40;;;;;;5004961;28;20209;-77
2022/10/07 09:44:00;;;;;;;3.35;2.60;;;32.90;54.30;;;;;;5004887;28;20202;-78
2022/10/07 09:46:33;;;;;;;2.47;2.28;;;33.40;52.50;;;;;;5008590;28;20184;-75
2022/10/07 09:49:03;;;;;;;3.50;2.78;;;33.70;51.50;;;;;;5007675;28;20185;-75
2022/10/07 09:51:31;;;;;;;2.90;2.40;;;34.00;50.80;;;;;;5006635;28;20184;-75
2022/10/07 09:54:02;;;;;;;2.75;2.55;;;34.10;51.40;;;;;;5011054;28;20200;-74
2022/10/07 09:56:40;;;;;;;2.72;2.50;;;34.20;50.90;;;;;;5009645;28;20208;-77
2022/10/07 09:59:20;;;;;;;2.70;2.55;;;34.30;50.10;;;;;;5014911;28;20655;-76
2022/10/07 10:01:55;;;;;;;5.35;2.80;;;34.40;49.90;;;;;;5011023;28;20212;-75
2022/10/07 10:04:36;;;;;;;2.47;2.30;;;34.70;49.90;;;;;;5008786;28;20204;-76
2022/10/07 10:07:36;;;;;;;3.50;2.53;;;35.10;48.50;;;;;;5007488;28;20176;-76
2022/10/07 10:10:21;;;;;;;3.60;3.30;;;35.30;49.10;;;;;;5007363;28;20643;-75
2022/10/07 10:12:50;;;;;;;4.05;2.47;;;36.00;47.40;;;;;;5007587;28;20201;-75
2022/10/07 10:15:22;;;;;;;2.95;2.75;;;36.00;47.80;;;;;;5006221;28;20212;-75
2022/10/07 10:17:48;;;;;;;3.67;2.50;;;36.00;46.90;;;;;;5010236;28;20200;-76
2022/10/07 10:20:25;;;;;;;2.78;2.38;;;35.90;47.20;;;;;;5008271;28;20169;-77
2022/10/07 10:22:51;;;;;;;3.40;2.65;;;36.10;47.30;;;;;;5009244;28;20193;-76
2022/10/07 10:26:32;;;;;;;3.55;2.42;;;36.60;46.10;;;;;;5014407;28;20526;-76
2022/10/07 10:29:01;;;;;;;3.38;2.20;;;36.40;46.00;;;;;;5002211;28;20204;-74
2022/10/07 10:31:55;;;;;;;2.95;2.60;;;36.00;46.80;;;;;;5004212;28;20522;-74
2022/10/07 10:34:53;;;;;;;2.70;2.40;;;36.50;46.10;;;;;;5005247;28;20204;-75
2022/10/07 10:37:38;;;;;;;2.58;2.38;;;36.70;46.10;;;;;;5007285;28;20554;-74
2022/10/07 10:40:27;;;;;;;5.00;2.53;;;37.40;45.20;;;;;;5005787;28;20208;-75
2022/10/07 10:43:10;;;;;;;4.85;2.70;;;37.80;44.50;;;;;;5007032;28;20201;-74
2022/10/07 10:45:54;;;;;;;2.70;2.10;;;37.80;44.00;;;;;;5005693;28;20689;-75
2022/10/07 10:48:38;;;;;;;3.42;2.75;;;37.90;44.30;;;;;;5007388;28;20176;-76
2022/10/07 10:51:33;;;;;;;6.53;2.53;;;38.60;43.10;;;;;;5002662;28;20361;-76
2022/10/07 10:54:16;;;;;;;2.60;2.30;;;38.40;43.30;;;;;;5006658;28;20203;-77
2022/10/07 10:57:03;;;;;;;2.83;2.47;;;38.00;44.40;;;;;;5003730;28;20761;-75
2022/10/07 10:59:54;;;;;;;2.60;2.25;;;38.30;43.80;;;;;;5006997;28;20271;-76
2022/10/07 11:02:29;;;;;;;6.28;2.38;;;38.70;43.10;;;;;;5004500;28;20258;-76
2022/10/07 11:05:18;;;;;;;3.08;2.40;;;38.80;43.30;;;;;;5005228;28;20180;-76
2022/10/07 11:07:49;;;;;;;3.78;2.20;;;39.20;42.40;;;;;;5009050;28;20246;-76
2022/10/07 11:10:20;;;;;;;4.15;2.15;;;39.80;41.60;;;;;;5004372;28;20184;-75
2022/10/07 11:13:03;;;;;;;4.30;2.40;;;40.30;40.00;;;;;;5007717;28;20295;-76
2022/10/07 11:15:40;;;;;;;2.10;1.90;;;40.00;40.80;;;;;;5020968;28;20236;-77
2022/10/07 11:18:26;;;;;;;2.20;2.00;;;39.30;41.60;;;;;;5007217;28;20251;-77
2022/10/07 11:20:53;;;;;;;3.10;1.92;;;39.40;41.10;;;;;;4990276;28;20205;-77
2022/10/07 11:23:24;;;;;;;2.80;1.90;;;39.60;40.80;;;;;;5016465;28;20299;-78
2022/10/07 11:25:55;;;;;;;3.58;1.83;;;39.90;40.80;;;;;;5002848;28;20177;-78
2022/10/07 11:28:25;;;;;;;2.45;1.70;;;40.20;40.70;;;;;;5006672;28;20655;-77
2022/10/07 11:31:03;;;;;;;4.57;1.88;;;40.50;40.40;;;;;;5007669;28;20177;-75
2022/10/07 11:33:45;;;;;;;2.47;2.08;;;40.40;41.00;;;;;;5005934;28;20243;-78
2022/10/07 11:36:38;;;;;;;4.43;2.20;;;40.30;40.20;;;;;;5004447;28;20180;-76
2022/10/07 11:39:04;;;;;;;3.20;2.08;;;40.20;41.40;;;;;;5007583;28;20187;-78
2022/10/07 11:41:47;;;;;;;2.53;1.90;;;40.30;40.10;;;;;;5011442;28;20208;-78
2022/10/07 11:44:31;;;;;;;3.25;1.88;;;40.40;39.40;;;;;;5015169;28;20192;-78
2022/10/07 11:47:01;;;;;;;5.10;2.15;;;40.20;39.40;;;;;;5003440;28;20272;-78
2022/10/07 11:49:43;;;;;;;7.57;2.55;;;40.10;40.10;;;;;;5010849;28;20204;-76
2022/10/07 11:52:23;;;;;;;4.20;2.17;;;40.10;40.30;;;;;;5005885;28;20172;-73
2022/10/07 11:54:58;;;;;;;4.63;1.98;;;40.30;40.20;;;;;;5014132;28;20384;-75
2022/10/07 11:57:28;;;;;;;3.45;1.95;;;41.00;39.10;;;;;;5006726;28;20733;-75
2022/10/07 12:00:07;;;;;;;5.22;2.08;;;41.60;38.70;;;;;;5018065;28;20181;-77
2022/10/07 12:02:40;;;;;;;4.13;2.30;;;41.20;38.90;;;;;;5010072;28;20219;-77
2022/10/07 12:05:25;;;;;;;2.47;2.00;;;41.30;38.70;;;;;;5009757;28;20199;-76
2022/10/07 12:08:28;;;;;;;2.97;2.25;;;41.50;39.10;;;;;;5016210;28;20262;-76
2022/10/07 12:11:11;;;;;;;1.77;1.63;;;41.40;38.50;;;;;;5000935;28;20185;-77
2022/10/07 12:13:36;;;;;;;4.57;1.92;;;41.60;38.90;;;;;;4999709;28;20204;-76
2022/10/07 12:16:28;;;;;;;3.75;1.80;;;42.00;38.10;;;;;;5010787;28;20183;-76
2022/10/07 12:19:15;;;;;;;4.68;1.70;;;41.50;37.90;;;;;;5009577;28;20185;-77
2022/10/07 12:21:58;;;;;;;4.88;2.05;;;41.00;38.90;;;;;;5005602;28;20197;-77
2022/10/07 12:24:24;;;;;;;6.55;2.00;;;40.80;39.60;;;;;;5014900;28;20282;-77
2022/10/07 12:26:50;;;;;;;3.90;2.00;;;41.00;39.70;;;;;;5009988;28;20188;-78
2022/10/07 12:29:38;;;;;;;4.60;2.00;;;41.00;39.20;;;;;;5011766;28;20177;-78
2022/10/07 12:32:43;;;;;;;5.45;2.35;;;40.70;39.50;;;;;;5005205;28;20201;-79
2022/10/07 12:35:33;;;;;;;2.03;1.80;;;39.30;40.60;;;;;;5016961;28;20172;-79
2022/10/07 12:38:23;;;;;;;2.15;1.65;;;37.40;42.10;;;;;;5022429;28;20216;-79
2022/10/07 12:41:15;;;;;;;3.80;2.00;;;35.70;44.20;;;;;;5017285;28;20190;-78
2022/10/07 12:43:53;;;;;;;4.03;2.13;;;33.90;47.50;;;;;;5025093;28;20281;-79
2022/10/07 12:46:21;;;;;;;3.35;1.77;;;33.00;47.90;;;;;;5017662;28;20185;-79
2022/10/07 12:49:25;;;;;;;2.10;1.63;;;32.50;49.10;;;;;;5011340;28;20185;-78
2022/10/07 12:51:57;;;;;;;5.82;2.40;;;32.30;47.90;;;;;;5001039;28;20192;-79
2022/10/07 12:54:31;;;;;;;4.82;1.90;;;31.70;49.90;;;;;;5033007;28;20195;-79
2022/10/07 12:56:59;;;;;;;2.75;2.08;;;31.30;51.80;;;;;;5025254;28;20220;-78
2022/10/07 13:00:00;;;;;;;3.20;2.05;;;31.20;52.20;;;;;;5024229;28;20176;-78
2022/10/07 13:03:03;;;;;;;5.28;2.13;;;31.10;51.20;;;;;;4988411;28;20231;-78
2022/10/07 13:05:50;;;;;;;6.38;2.15;;;30.50;52.20;;;;;;5023253;28;20662;-79
2022/10/07 13:08:30;;;;;;;2.47;2.15;;;30.00;53.50;;;;;;5021913;28;20184;-78
2022/10/07 13:11:21;;;;;;;3.38;1.85;;;29.50;54.00;;;;;;5021268;28;20669;-78
2022/10/07 13:14:25;;;;;;;2.67;1.92;;;29.20;54.80;;;;;;5025543;28;20208;-77
2022/10/07 13:17:16;;;;;;;2.47;1.83;;;28.70;55.60;;;;;;5019534;28;20193;-79
2022/10/07 13:20:01;;;;;;;4.38;2.30;;;28.20;55.60;;;;;;5017603;28;20176;-79
2022/10/07 13:22:27;;;;;;;5.85;2.28;;;27.90;56.90;;;;;;5009458;28;20201;-79
2022/10/07 13:24:55;;;;;;;2.60;2.30;;;28.00;57.90;;;;;;5023542;28;20226;-79
2022/10/07 13:27:33;;;;;;;7.53;2.30;;;28.20;57.70;;;;;;5020494;28;20176;-78
2022/10/07 13:30:00;;;;;;;3.20;2.20;;;28.50;57.00;;;;;;5023667;28;20841;-79
2022/10/07 13:32:29;;;;;;;4.05;1.90;;;29.20;56.50;;;;;;5022064;28;20208;-78
2022/10/07 13:34:56;;;;;;;5.03;1.85;;;29.80;55.10;;;;;;5022337;28;20180;-78
2022/10/07 13:37:25;;;;;;;4.05;2.20;;;30.10;55.10;;;;;;5022732;28;20686;-78